Time;durP1;ratioP1;P1;durP2;ratioP2;P2;SDS_P1;SDS_P2;PMS_P1;PMS_P2;Temp;Humidity;BMP_temperature;BMP_pressure;BME280_temperature;BME280_humidity;BME280_pressure;Samples;Min_cycle;Max_cycle;Signal;HPM_P1;HPM_P2
2022/08/14 00:01:47;;;;;;;;;;;19.90;69.50;;;;;;4918440;29;19935;-87
2022/08/14 00:04:22;;;;;;;;;;;19.90;69.10;;;;;;4925759;29;19927;-88
2022/08/14 00:07:02;;;;;;;;;;;19.90;68.50;;;;;;4939215;29;19934;-83
2022/08/14 00:09:29;;;;;;;;;;;19.90;68.10;;;;;;4935933;29;20372;-85
2022/08/14 00:11:58;;;;;;;;;;;19.80;67.80;;;;;;4919630;29;19993;-84
2022/08/14 00:14:26;;;;;;;;;;;19.90;67.60;;;;;;4910660;29;20011;-88
2022/08/14 00:16:54;;;;;;;;;;;19.90;67.60;;;;;;4933272;29;20410;-84
2022/08/14 00:19:22;;;;;;;;;;;19.80;67.70;;;;;;4907833;29;19935;-88
2022/08/14 00:21:49;;;;;;;;;;;19.80;67.50;;;;;;4925015;29;19982;-88
2022/08/14 00:24:19;;;;;;;;;;;19.80;67.50;;;;;;4919810;29;19970;-83
2022/08/14 00:26:57;;;;;;;;;;;19.80;67.70;;;;;;4935877;29;19966;-88
2022/08/14 00:29:29;;;;;;;;;;;19.70;67.90;;;;;;4921961;29;20351;-88
2022/08/14 00:31:58;;;;;;;;;;;19.70;67.90;;;;;;4918138;29;19946;-84
2022/08/14 00:34:25;;;;;;;;;;;19.60;67.80;;;;;;4910430;29;19931;-83
2022/08/14 00:37:01;;;;;;;;;;;19.60;67.60;;;;;;4920436;29;19934;-88
2022/08/14 00:39:28;;;;;;;;;;;19.60;67.50;;;;;;4916229;29;19927;-85
2022/08/14 00:41:56;;;;;;;;;;;19.60;67.50;;;;;;4925669;29;20399;-87
2022/08/14 00:44:22;;;;;;;;;;;19.60;68.10;;;;;;4923074;29;19926;-88
2022/08/14 00:47:04;;;;;;;;;;;19.60;68.30;;;;;;4925219;29;19927;-88
2022/08/14 00:49:36;;;;;;;;;;;19.60;68.50;;;;;;4926404;29;19927;-84
2022/08/14 00:52:10;;;;;;;;;;;19.50;68.80;;;;;;4940816;29;19977;-88
2022/08/14 00:54:43;;;;;;;;;;;19.50;68.70;;;;;;4937465;28;19928;-84
2022/08/14 00:57:11;;;;;;;;;;;19.50;67.80;;;;;;4927120;29;20017;-84
2022/08/14 00:59:38;;;;;;;;;;;19.60;66.70;;;;;;4935961;29;19930;-88
2022/08/14 01:02:05;;;;;;;;;;;19.60;65.80;;;;;;4921612;29;20355;-84
2022/08/14 01:04:37;;;;;;;;;;;19.70;65.10;;;;;;4938536;29;20390;-85
2022/08/14 01:07:20;;;;;;;;;;;19.80;64.50;;;;;;4926728;28;19934;-84
2022/08/14 01:09:49;;;;;;;;;;;19.90;63.90;;;;;;4934462;29;19927;-84
2022/08/14 01:12:17;;;;;;;;;;;20.00;63.50;;;;;;4918670;29;19927;-83
2022/08/14 01:14:59;;;;;;;;;;;20.10;63.30;;;;;;4933940;29;20280;-88
2022/08/14 01:23:10;;;;;;;;;;;20.30;62.40;;;;;;4939943;29;19934;-84
2022/08/14 01:25:44;;;;;;;;;;;20.30;62.10;;;;;;4921572;29;19927;-89
2022/08/14 01:28:11;;;;;;;;;;;20.40;61.50;;;;;;4917972;29;20009;-83
2022/08/14 01:30:58;;;;;;;;;;;20.40;61.20;;;;;;4938843;29;19970;-87
2022/08/14 01:33:28;;;;;;;;;;;20.50;60.80;;;;;;4922008;29;19945;-87
2022/08/14 01:36:01;;;;;;;;;;;20.50;60.70;;;;;;4918515;29;20418;-84
2022/08/14 01:38:33;;;;;;;;;;;20.60;60.50;;;;;;4922031;29;20364;-87
2022/08/14 01:41:05;;;;;;;;;;;20.60;60.40;;;;;;4934857;29;20273;-84
2022/08/14 01:43:44;;;;;;;;;;;20.60;60.30;;;;;;4918450;29;20387;-87
2022/08/14 01:46:23;;;;;;;;;;;20.60;60.10;;;;;;4918102;29;19934;-84
2022/08/14 01:48:51;;;;;;;;;;;20.60;60.00;;;;;;4937798;29;19978;-84
2022/08/14 01:51:21;;;;;;;;;;;20.70;60.00;;;;;;4920843;29;19934;-85
2022/08/14 01:53:53;;;;;;;;;;;20.70;60.20;;;;;;4911326;29;19934;-87
2022/08/14 01:56:34;;;;;;;;;;;20.60;60.10;;;;;;4921052;29;19933;-84
2022/08/14 01:59:06;;;;;;;;;;;20.60;60.10;;;;;;4930193;29;20306;-87
2022/08/14 02:01:40;;;;;;;;;;;20.60;60.10;;;;;;4919691;29;19927;-85
2022/08/14 02:04:21;;;;;;;;;;;20.60;59.80;;;;;;4924807;29;19926;-88
2022/08/14 02:07:08;;;;;;;;;;;20.60;59.70;;;;;;4914358;29;20322;-83
2022/08/14 02:09:41;;;;;;;;;;;20.60;59.60;;;;;;4929012;29;19927;-84
2022/08/14 02:12:08;;;;;;;;;;;20.60;59.40;;;;;;4939602;29;19931;-83
2022/08/14 02:14:45;;;;;;;;;;;20.70;59.30;;;;;;4932678;29;20509;-84
2022/08/14 02:17:27;;;;;;;;;;;20.70;59.20;;;;;;4923039;29;19930;-88
2022/08/14 02:19:56;;;;;;;;;;;20.60;58.90;;;;;;4917011;29;19938;-88
2022/08/14 02:22:25;;;;;;;;;;;20.70;59.00;;;;;;4938028;29;19931;-85
2022/08/14 02:24:59;;;;;;;;;;;20.70;59.10;;;;;;4913047;29;19927;-85
2022/08/14 02:27:28;;;;;;;;;;;20.60;59.10;;;;;;4916065;29;19928;-88
2022/08/14 02:30:15;;;;;;;;;;;20.60;59.20;;;;;;4924337;29;20026;-88
2022/08/14 02:32:42;;;;;;;;;;;20.60;59.20;;;;;;4946702;29;19927;-88
2022/08/14 02:35:16;;;;;;;;;;;20.60;59.20;;;;;;4925799;29;20092;-88
2022/08/14 02:37:44;;;;;;;;;;;20.70;59.30;;;;;;4928365;29;19927;-84
2022/08/14 02:40:17;;;;;;;;;;;20.60;59.20;;;;;;4947079;29;19926;-88
2022/08/14 02:42:44;;;;;;;;;;;20.60;59.20;;;;;;4937950;29;19949;-88
2022/08/14 02:45:25;;;;;;;;;;;20.70;59.30;;;;;;4926487;29;19935;-87
2022/08/14 02:48:05;;;;;;;;;;;20.60;59.30;;;;;;4923359;29;20348;-84
2022/08/14 02:50:52;;;;;;;;;;;20.60;59.20;;;;;;4939954;29;20451;-83
2022/08/14 02:53:19;;;;;;;;;;;20.60;59.20;;;;;;4940257;29;19956;-88
2022/08/14 02:55:46;;;;;;;;;;;20.60;59.00;;;;;;4926870;29;19990;-84
2022/08/14 02:58:13;;;;;;;;;;;20.60;58.80;;;;;;4925641;29;19927;-83
2022/08/14 03:00:56;;;;;;;;;;;20.60;58.80;;;;;;4945453;28;20005;-87
2022/08/14 03:03:24;;;;;;;;;;;20.60;58.60;;;;;;4938262;29;20303;-84
2022/08/14 03:05:51;;;;;;;;;;;20.70;58.50;;;;;;4924935;29;19934;-86
2022/08/14 03:08:21;;;;;;;;;;;20.70;58.40;;;;;;4928377;29;20006;-85
2022/08/14 03:10:47;;;;;;;;;;;20.70;58.30;;;;;;4937443;29;19930;-84
2022/08/14 03:13:18;;;;;;;;;;;20.70;58.40;;;;;;4932693;29;19995;-83
2022/08/14 03:15:52;;;;;;;;;;;20.70;58.50;;;;;;4917885;29;20273;-83
2022/08/14 03:18:25;;;;;;;;;;;20.60;58.70;;;;;;4920673;29;19933;-87
2022/08/14 03:21:06;;;;;;;;;;;20.60;59.10;;;;;;4913197;29;19959;-83
2022/08/14 03:23:34;;;;;;;;;;;20.60;59.20;;;;;;4916658;29;19930;-84
2022/08/14 03:26:07;;;;;;;;;;;20.60;59.80;;;;;;4911090;29;19933;-85
2022/08/14 03:28:44;;;;;;;;;;;20.50;60.80;;;;;;4916774;29;19965;-88
2022/08/14 03:31:11;;;;;;;;;;;20.30;60.90;;;;;;4920505;29;19931;-87
2022/08/14 03:33:42;;;;;;;;;;;20.20;61.70;;;;;;4931311;29;20005;-83
2022/08/14 03:36:13;;;;;;;;;;;20.10;62.30;;;;;;4908849;29;19927;-88
2022/08/14 03:39:04;;;;;;;;;;;20.10;62.80;;;;;;4905442;29;29805;-83
2022/08/14 03:41:51;;;;;;;;;;;19.90;63.20;;;;;;4924667;29;19930;-87
2022/08/14 03:44:18;;;;;;;;;;;19.80;63.50;;;;;;4919147;29;19926;-88
2022/08/14 03:47:05;;;;;;;;;;;19.80;63.10;;;;;;4937129;29;19926;-83
2022/08/14 03:49:33;;;;;;;;;;;19.70;63.20;;;;;;4920404;29;19938;-87
2022/08/14 03:52:07;;;;;;;;;;;19.70;63.00;;;;;;4947325;29;19931;-87
2022/08/14 03:54:54;;;;;;;;;;;19.70;62.70;;;;;;4923129;29;20451;-87
2022/08/14 03:57:21;;;;;;;;;;;19.80;62.40;;;;;;4908416;29;19952;-83
2022/08/14 03:59:49;;;;;;;;;;;19.80;63.00;;;;;;4946686;29;19927;-83
2022/08/14 04:02:16;;;;;;;;;;;19.90;61.80;;;;;;4920145;29;19934;-84
2022/08/14 04:05:04;;;;;;;;;;;19.90;61.70;;;;;;4947789;29;19938;-84
2022/08/14 04:07:39;;;;;;;;;;;19.90;61.70;;;;;;4922726;29;19927;-83
2022/08/14 04:10:26;;;;;;;;;;;19.90;62.00;;;;;;4923357;29;20324;-85
2022/08/14 04:12:59;;;;;;;;;;;19.90;61.40;;;;;;4926415;29;20310;-86
2022/08/14 04:15:30;;;;;;;;;;;19.90;61.40;;;;;;4935847;29;19969;-87
2022/08/14 04:18:01;;;;;;;;;;;19.90;61.20;;;;;;4928419;29;19938;-87
2022/08/14 04:20:30;;;;;;;;;;;19.90;60.90;;;;;;4930823;29;19950;-87
2022/08/14 04:22:57;;;;;;;;;;;20.00;61.00;;;;;;4927112;29;19974;-84
2022/08/14 04:25:25;;;;;;;;;;;20.00;60.80;;;;;;4925315;29;21963;-88
2022/08/14 04:27:53;;;;;;;;;;;20.00;60.70;;;;;;4927775;29;20391;-85
2022/08/14 04:30:29;;;;;;;;;;;20.00;60.50;;;;;;4931750;29;19978;-86
2022/08/14 04:32:58;;;;;;;;;;;20.10;59.90;;;;;;4917666;29;19927;-87
2022/08/14 04:35:36;;;;;;;;;;;20.20;59.80;;;;;;4937366;29;19965;-87
2022/08/14 04:43:57;;;;;;;;;;;20.30;59.60;;;;;;4940104;29;19978;-88
2022/08/14 04:46:24;;;;;;;;;;;20.20;59.40;;;;;;4923395;29;19928;-88
2022/08/14 04:49:12;;;;;;;;;;;20.30;59.10;;;;;;4949115;29;19933;-87
2022/08/14 04:51:40;;;;;;;;;;;20.40;58.80;;;;;;4923352;29;20361;-87
2022/08/14 04:54:23;;;;;;;;;;;20.40;58.50;;;;;;4944962;29;19931;-87
2022/08/14 04:56:50;;;;;;;;;;;20.50;58.50;;;;;;4933242;29;19937;-88
2022/08/14 04:59:20;;;;;;;;;;;20.50;58.50;;;;;;4926027;29;19935;-87
2022/08/14 05:01:46;;;;;;;;;;;20.50;58.30;;;;;;4945317;29;19974;-88
2022/08/14 05:04:20;;;;;;;;;;;20.50;58.10;;;;;;4918126;29;19966;-87
2022/08/14 05:06:50;;;;;;;;;;;20.50;58.00;;;;;;4928203;29;19934;-84
2022/08/14 05:09:20;;;;;;;;;;;20.60;57.90;;;;;;4913491;29;19930;-87
2022/08/14 05:11:48;;;;;;;;;;;20.60;57.90;;;;;;4952729;29;19950;-87
2022/08/14 05:14:17;;;;;;;;;;;20.60;57.90;;;;;;4928259;29;20021;-87
2022/08/14 05:17:04;;;;;;;;;;;20.60;57.90;;;;;;4939501;29;19963;-84
2022/08/14 05:19:32;;;;;;;;;;;20.60;57.70;;;;;;4928854;29;19934;-87
2022/08/14 05:22:10;;;;;;;;;;;20.60;57.60;;;;;;4947650;29;20355;-84
2022/08/14 05:24:48;;;;;;;;;;;20.70;57.60;;;;;;4917653;29;19927;-85
2022/08/14 05:27:19;;;;;;;;;;;20.60;57.80;;;;;;4917631;29;19976;-88
2022/08/14 05:29:50;;;;;;;;;;;20.70;57.50;;;;;;4931443;29;20320;-86
2022/08/14 05:32:17;;;;;;;;;;;20.70;57.50;;;;;;4932845;29;19926;-84
2022/08/14 05:34:46;;;;;;;;;;;20.70;57.50;;;;;;4927738;29;19931;-84
2022/08/14 05:37:13;;;;;;;;;;;20.70;57.50;;;;;;4927660;29;19953;-88
2022/08/14 05:39:41;;;;;;;;;;;20.80;57.40;;;;;;4942311;29;19927;-86
2022/08/14 05:42:08;;;;;;;;;;;20.80;57.50;;;;;;4922994;29;20323;-88
2022/08/14 05:44:53;;;;;;;;;;;20.80;58.90;;;;;;4928445;29;19927;-86
2022/08/14 05:47:21;;;;;;;;;;;20.90;58.30;;;;;;4940677;29;19958;-85
2022/08/14 05:49:48;;;;;;;;;;;20.90;58.30;;;;;;4945289;29;19934;-87
2022/08/14 05:52:17;;;;;;;;;;;20.90;58.00;;;;;;4922499;29;19968;-85
2022/08/14 05:54:52;;;;;;;;;;;20.90;57.70;;;;;;4927216;29;19951;-88
2022/08/14 05:57:19;;;;;;;;;;;21.00;58.40;;;;;;4914703;29;19926;-88
2022/08/14 05:59:47;;;;;;;;;;;21.00;57.10;;;;;;4923101;29;19927;-87
2022/08/14 06:02:13;;;;;;;;;;;21.10;56.70;;;;;;4919513;29;19927;-89
2022/08/14 06:04:47;;;;;;;;;;;21.10;56.60;;;;;;4926146;29;20302;-84
2022/08/14 06:07:15;;;;;;;;;;;21.20;56.70;;;;;;4946204;29;20402;-87
2022/08/14 06:09:42;;;;;;;;;;;21.20;56.70;;;;;;4927694;29;19940;-88
2022/08/14 06:12:16;;;;;;;;;;;21.20;56.80;;;;;;4930581;29;19933;-85
2022/08/14 06:15:05;;;;;;;;;;;21.30;56.90;;;;;;4944588;29;20022;-88
2022/08/14 06:17:47;;;;;;;;;;;21.30;56.80;;;;;;4927971;29;19930;-85
2022/08/14 06:20:25;;;;;;;;;;;21.30;56.60;;;;;;4926976;29;20764;-85
2022/08/14 06:22:54;;;;;;;;;;;21.40;56.60;;;;;;4925956;29;20387;-87
2022/08/14 06:25:22;;;;;;;;;;;21.40;56.40;;;;;;4922615;29;19943;-88
2022/08/14 06:27:50;;;;;;;;;;;21.40;56.40;;;;;;4933804;29;20303;-88
2022/08/14 06:30:19;;;;;;;;;;;21.50;56.70;;;;;;4922511;29;20002;-87
2022/08/14 06:32:46;;;;;;;;;;;21.50;57.30;;;;;;4949234;29;19951;-85
2022/08/14 06:35:22;;;;;;;;;;;21.60;56.10;;;;;;4914082;29;20307;-88
2022/08/14 06:37:50;;;;;;;;;;;21.70;55.70;;;;;;4946076;29;19931;-85
2022/08/14 06:40:19;;;;;;;;;;;21.70;55.70;;;;;;4927068;29;19986;-88
2022/08/14 06:42:54;;;;;;;;;;;21.80;55.50;;;;;;4916853;29;20348;-88
2022/08/14 06:45:22;;;;;;;;;;;21.90;55.60;;;;;;4924849;29;19935;-88
2022/08/14 06:47:52;;;;;;;;;;;22.00;55.10;;;;;;4925990;29;20285;-88
2022/08/14 06:50:20;;;;;;;;;;;22.10;54.80;;;;;;4945375;29;19978;-88
2022/08/14 06:52:54;;;;;;;;;;;22.20;54.90;;;;;;4942647;29;19966;-87
2022/08/14 06:55:21;;;;;;;;;;;22.30;55.00;;;;;;4931952;28;19927;-84
2022/08/14 06:57:54;;;;;;;;;;;22.40;54.10;;;;;;4947850;29;19959;-86
2022/08/14 07:00:22;;;;;;;;;;;22.50;53.80;;;;;;4924845;29;19927;-85
2022/08/14 07:08:25;;;;;;;;;;;22.80;52.90;;;;;;4942741;29;19927;-88
2022/08/14 07:10:57;;;;;;;;;;;22.90;52.90;;;;;;4945083;29;19930;-86
2022/08/14 07:13:25;;;;;;;;;;;23.00;52.80;;;;;;4923143;29;19927;-85
2022/08/14 07:15:53;;;;;;;;;;;23.20;52.20;;;;;;4943645;29;19927;-85
2022/08/14 07:18:24;;;;;;;;;;;23.30;52.10;;;;;;4919061;29;19927;-87
2022/08/14 07:20:55;;;;;;;;;;;23.50;51.70;;;;;;4920490;29;19982;-87
2022/08/14 07:23:22;;;;;;;;;;;23.70;52.00;;;;;;4920441;29;20387;-88
2022/08/14 07:25:51;;;;;;;;;;;23.90;51.20;;;;;;4930975;29;19927;-84
2022/08/14 07:28:19;;;;;;;;;;;24.00;50.50;;;;;;4926121;29;19931;-84
2022/08/14 07:30:47;;;;;;;;;;;24.10;49.80;;;;;;4919986;29;19926;-88
2022/08/14 07:33:17;;;;;;;;;;;24.20;49.90;;;;;;4917217;29;19927;-85
2022/08/14 07:35:50;;;;;;;;;;;24.30;49.10;;;;;;4929733;29;20382;-89
2022/08/14 07:38:26;;;;;;;;;;;24.30;48.90;;;;;;4939578;29;19926;-88
2022/08/14 07:41:04;;;;;;;;;;;24.30;48.60;;;;;;4921872;29;20027;-89
2022/08/14 07:43:41;;;;;;;;;;;24.40;49.10;;;;;;4935248;29;19999;-85
2022/08/14 07:46:07;;;;;;;;;;;24.50;49.60;;;;;;4920040;29;20168;-89
2022/08/14 07:48:39;;;;;;;;;;;24.50;49.10;;;;;;4929521;29;19930;-89
2022/08/14 07:51:07;;;;;;;;;;;24.50;49.20;;;;;;4935327;29;20383;-89
2022/08/14 07:53:37;;;;;;;;;;;24.50;49.20;;;;;;4925503;29;19927;-86
2022/08/14 07:56:06;;;;;;;;;;;24.60;49.60;;;;;;4937076;29;19927;-86
2022/08/14 07:58:53;;;;;;;;;;;24.60;49.60;;;;;;4934853;28;19926;-87
2022/08/14 08:01:25;;;;;;;;;;;24.60;48.80;;;;;;4928109;29;19927;-86
2022/08/14 08:03:53;;;;;;;;;;;24.70;49.30;;;;;;4919490;29;20435;-89
2022/08/14 08:06:25;;;;;;;;;;;24.80;49.10;;;;;;4924099;29;20013;-88
2022/08/14 08:08:54;;;;;;;;;;;24.90;49.10;;;;;;4917966;29;19926;-89
2022/08/14 08:11:33;;;;;;;;;;;25.00;48.80;;;;;;4925754;29;19930;-90
2022/08/14 08:14:05;;;;;;;;;;;25.20;48.50;;;;;;4919183;29;20927;-87
2022/08/14 08:16:37;;;;;;;;;;;25.30;48.40;;;;;;4923461;29;19927;-87
2022/08/14 08:19:07;;;;;;;;;;;25.50;47.90;;;;;;4916137;29;20010;-89
2022/08/14 08:21:39;;;;;;;;;;;25.60;47.00;;;;;;4925219;29;20358;-86
2022/08/14 08:24:10;;;;;;;;;;;25.60;46.40;;;;;;4915672;29;19959;-84
2022/08/14 08:26:44;;;;;;;;;;;25.60;46.50;;;;;;4923517;29;19941;-90
2022/08/14 08:29:17;;;;;;;;;;;25.50;46.80;;;;;;4921842;29;19927;-84
2022/08/14 08:31:48;;;;;;;;;;;25.50;47.10;;;;;;4947045;29;19927;-89
2022/08/14 08:34:18;;;;;;;;;;;25.50;47.70;;;;;;4939649;29;19926;-88
2022/08/14 08:36:49;;;;;;;;;;;25.60;47.80;;;;;;4926896;29;19927;-88
2022/08/14 08:39:15;;;;;;;;;;;25.60;47.20;;;;;;4919557;29;19930;-86
2022/08/14 08:41:48;;;;;;;;;;;25.60;47.60;;;;;;4922450;29;20026;-83
2022/08/14 08:44:19;;;;;;;;;;;25.60;47.90;;;;;;4910417;29;19934;-91
2022/08/14 08:47:06;;;;;;;;;;;25.60;48.10;;;;;;4920922;29;19926;-82
2022/08/14 08:49:41;;;;;;;;;;;25.60;48.20;;;;;;4920132;29;19934;-85
2022/08/14 08:52:25;;;;;;;;;;;25.60;48.10;;;;;;4934095;29;19933;-87
2022/08/14 08:54:58;;;;;;;;;;;25.60;48.00;;;;;;4912553;29;19962;-88
2022/08/14 08:57:26;;;;;;;;;;;25.50;47.50;;;;;;4931436;29;19959;-87
2022/08/14 08:59:53;;;;;;;;;;;25.50;47.30;;;;;;4919595;29;19962;-88
2022/08/14 09:02:24;;;;;;;;;;;25.50;47.70;;;;;;4935560;29;20277;-87
2022/08/14 09:04:59;;;;;;;;;;;25.50;48.60;;;;;;4934772;29;19933;-85
2022/08/14 09:07:26;;;;;;;;;;;25.50;47.40;;;;;;4915863;29;19931;-86
2022/08/14 09:09:55;;;;;;;;;;;25.60;48.00;;;;;;4913051;29;19930;-87
2022/08/14 09:12:27;;;;;;;;;;;25.70;47.80;;;;;;4914196;29;19982;-89
2022/08/14 09:15:03;;;;;;;;;;;25.80;47.90;;;;;;4916146;29;19933;-85
2022/08/14 09:17:38;;;;;;;;;;;25.80;47.60;;;;;;4928150;29;19934;-86
2022/08/14 09:20:08;;;;;;;;;;;25.80;48.00;;;;;;4937446;28;20010;-87
2022/08/14 09:22:40;;;;;;;;;;;25.90;47.90;;;;;;4923046;29;19943;-89
2022/08/14 09:25:14;;;;;;;;;;;25.80;47.50;;;;;;4927802;29;20340;-87
2022/08/14 09:27:41;;;;;;;;;;;25.80;47.60;;;;;;4918647;29;20285;-89
2022/08/14 09:30:09;;;;;;;;;;;25.90;46.70;;;;;;4916608;29;20006;-87
2022/08/14 09:33:02;;;;;;;;;;;25.90;47.20;;;;;;4927399;29;20009;-85
2022/08/14 09:35:52;;;;;;;;;;;25.80;47.20;;;;;;4924620;29;19926;-87
2022/08/14 09:38:36;;;;;;;;;;;25.80;47.20;;;;;;4914232;29;19933;-87
2022/08/14 09:41:11;;;;;;;;;;;25.80;47.50;;;;;;4932677;29;19933;-88
2022/08/14 09:43:45;;;;;;;;;;;25.80;47.50;;;;;;4936374;29;19931;-87
2022/08/14 09:46:15;;;;;;;;;;;25.70;47.70;;;;;;4924529;29;19927;-88
2022/08/14 09:48:56;;;;;;;;;;;25.70;48.00;;;;;;4925216;29;20299;-88
2022/08/14 09:51:24;;;;;;;;;;;25.70;48.20;;;;;;4935737;29;19927;-88
2022/08/14 09:54:09;;;;;;;;;;;25.70;48.40;;;;;;4916661;29;19931;-87
2022/08/14 09:56:49;;;;;;;;;;;25.70;48.50;;;;;;4932695;29;19958;-85
2022/08/14 09:59:24;;;;;;;;;;;25.70;48.60;;;;;;4915715;29;20410;-88
2022/08/14 10:01:55;;;;;;;;;;;25.60;48.40;;;;;;4910595;29;20042;-87
2022/08/14 10:04:24;;;;;;;;;;;25.60;48.40;;;;;;4940647;29;19935;-86
2022/08/14 10:07:05;;;;;;;;;;;25.60;48.50;;;;;;4920528;29;19955;-86
2022/08/14 10:09:45;;;;;;;;;;;25.60;48.20;;;;;;4926061;29;19938;-86
2022/08/14 10:12:41;;;;;;;;;;;25.50;47.50;;;;;;4925155;29;19927;-86
2022/08/14 10:15:17;;;;;;;;;;;25.50;48.00;;;;;;4922503;29;19927;-85
2022/08/14 10:17:45;;;;;;;;;;;25.50;48.20;;;;;;4923857;29;19959;-86
2022/08/14 10:20:16;;;;;;;;;;;25.60;48.10;;;;;;4916176;29;20013;-86
2022/08/14 10:23:10;;;;;;;;;;;25.60;48.10;;;;;;4930573;29;19954;-85
2022/08/14 10:25:49;;;;;;;;;;;25.70;48.10;;;;;;4936296;29;19933;-84
2022/08/14 10:28:19;;;;;;;;;;;25.70;48.10;;;;;;4929222;29;19966;-88
2022/08/14 10:31:15;;;;;;;;;;;25.90;47.60;;;;;;4916827;29;20014;-88
2022/08/14 10:33:57;;;;;;;;;;;25.90;47.20;;;;;;4930671;29;19927;-88
2022/08/14 10:36:26;;;;;;;;;;;26.00;47.00;;;;;;4911675;29;20034;-86
2022/08/14 10:39:17;;;;;;;;;;;26.00;47.00;;;;;;4916912;29;19927;-84
2022/08/14 10:41:44;;;;;;;;;;;26.20;45.80;;;;;;4935136;29;19930;-87
2022/08/14 10:44:21;;;;;;;;;;;26.20;45.30;;;;;;4916127;29;19987;-86
2022/08/14 10:46:52;;;;;;;;;;;26.20;45.30;;;;;;4932328;29;20057;-88
2022/08/14 10:49:48;;;;;;;;;;;26.30;44.90;;;;;;4930448;29;19931;-86
2022/08/14 10:52:25;;;;;;;;;;;26.30;45.20;;;;;;4917844;29;19934;-87
2022/08/14 10:54:52;;;;;;;;;;;26.40;44.70;;;;;;4930472;29;20014;-87
2022/08/14 10:57:23;;;;;;;;;;;26.50;45.10;;;;;;4939161;29;19934;-84
2022/08/14 10:59:52;;;;;;;;;;;26.60;44.80;;;;;;4922754;29;19966;-86
2022/08/14 11:02:27;;;;;;;;;;;26.60;44.70;;;;;;4916432;29;20034;-86
2022/08/14 11:05:17;;;;;;;;;;;26.70;44.90;;;;;;4931738;29;19976;-86
2022/08/14 11:07:53;;;;;;;;;;;26.80;44.90;;;;;;4914446;29;20404;-85
2022/08/14 11:10:24;;;;;;;;;;;26.80;44.20;;;;;;4934888;29;19927;-87
2022/08/14 11:12:56;;;;;;;;;;;26.90;44.60;;;;;;4920833;29;20014;-85
2022/08/14 11:15:26;;;;;;;;;;;26.90;44.40;;;;;;4920123;29;19977;-87
2022/08/14 11:17:54;;;;;;;;;;;27.00;43.60;;;;;;4918512;29;19927;-84
2022/08/14 11:20:28;;;;;;;;;;;27.00;43.60;;;;;;4927226;29;19927;-86
2022/08/14 11:22:57;;;;;;;;;;;27.00;43.20;;;;;;4931647;29;19931;-87
2022/08/14 11:25:26;;;;;;;;;;;27.10;43.10;;;;;;4923022;29;20010;-85
2022/08/14 11:28:10;;;;;;;;;;;27.20;43.20;;;;;;4921146;29;19930;-87
2022/08/14 11:30:46;;;;;;;;;;;27.20;43.00;;;;;;4935549;29;19959;-86
2022/08/14 11:33:23;;;;;;;;;;;27.40;43.40;;;;;;4915273;29;20414;-87
2022/08/14 11:35:50;;;;;;;;;;;27.50;43.00;;;;;;4938403;29;20003;-87
2022/08/14 11:38:20;;;;;;;;;;;27.60;42.80;;;;;;4913089;29;19931;-85
2022/08/14 11:40:47;;;;;;;;;;;27.80;42.70;;;;;;4917989;29;19927;-84
2022/08/14 11:43:15;;;;;;;;;;;27.80;40.70;;;;;;4937298;28;19934;-86
2022/08/14 11:45:44;;;;;;;;;;;27.90;39.30;;;;;;4941723;29;19930;-84
2022/08/14 11:48:13;;;;;;;;;;;27.90;39.30;;;;;;4920793;29;19926;-85
2022/08/14 11:51:00;;;;;;;;;;;27.90;40.10;;;;;;4931457;29;19933;-87
2022/08/14 11:53:31;;;;;;;;;;;27.90;39.50;;;;;;4918334;29;20289;-85
2022/08/14 11:56:01;;;;;;;;;;;27.90;38.90;;;;;;4911077;29;20387;-87
2022/08/14 11:58:33;;;;;;;;;;;27.80;38.20;;;;;;4911024;29;19970;-86
2022/08/14 12:01:05;;;;;;;;;;;27.70;38.20;;;;;;4919560;29;19938;-88
2022/08/14 12:03:39;;;;;;;;;;;27.70;38.90;;;;;;4923058;29;19931;-84
2022/08/14 12:06:18;;;;;;;;;;;27.60;39.70;;;;;;4929466;29;19934;-86
2022/08/14 12:09:05;;;;;;;;;;;27.50;40.60;;;;;;4928677;29;19927;-84
2022/08/14 12:11:38;;;;;;;;;;;27.50;40.80;;;;;;4916730;29;20351;-83
2022/08/14 12:14:14;;;;;;;;;;;27.50;41.20;;;;;;4915476;29;19931;-86
2022/08/14 12:17:05;;;;;;;;;;;27.60;41.30;;;;;;4934285;29;19933;-86
2022/08/14 12:19:44;;;;;;;;;;;27.60;41.20;;;;;;4912945;29;19927;-86
2022/08/14 12:22:17;;;;;;;;;;;27.70;41.50;;;;;;4929088;29;19934;-89
2022/08/14 12:24:56;;;;;;;;;;;27.70;41.00;;;;;;4921210;29;19978;-86
2022/08/14 12:27:33;;;;;;;;;;;27.70;41.10;;;;;;4918281;29;20288;-86
2022/08/14 12:30:07;;;;;;;;;;;27.70;40.50;;;;;;4915938;29;20014;-86
2022/08/14 12:32:37;;;;;;;;;;;27.60;39.90;;;;;;4913822;29;20022;-84
2022/08/14 12:35:07;;;;;;;;;;;27.60;40.30;;;;;;4922429;29;20470;-84
2022/08/14 12:37:37;;;;;;;;;;;27.60;40.10;;;;;;4919833;29;19930;-87
2022/08/14 12:40:09;;;;;;;;;;;27.50;39.10;;;;;;4910010;29;19927;-90
2022/08/14 12:42:37;;;;;;;;;;;27.40;38.70;;;;;;4906681;29;19927;-86
2022/08/14 12:45:28;;;;;;;;;;;27.30;39.00;;;;;;4923135;29;20408;-89
2022/08/14 12:47:59;;;;;;;;;;;27.10;39.70;;;;;;4920595;29;19941;-86
2022/08/14 12:50:40;;;;;;;;;;;27.00;40.30;;;;;;4917749;29;19934;-85
2022/08/14 12:53:08;;;;;;;;;;;27.00;40.60;;;;;;4923274;29;19989;-84
2022/08/14 12:55:44;;;;;;;;;;;26.90;41.10;;;;;;4925619;29;20033;-86
2022/08/14 12:58:31;;;;;;;;;;;26.90;41.50;;;;;;4923192;29;20009;-86
2022/08/14 13:01:26;;;;;;;;;;;26.90;41.80;;;;;;4928815;29;20347;-86
2022/08/14 13:04:04;;;;;;;;;;;26.90;42.50;;;;;;4921212;29;19926;-89
2022/08/14 13:06:32;;;;;;;;;;;26.90;42.00;;;;;;4907446;29;20018;-85
2022/08/14 13:08:59;;;;;;;;;;;27.00;42.20;;;;;;4925618;29;19931;-86
2022/08/14 13:11:29;;;;;;;;;;;27.00;42.20;;;;;;4924684;29;19927;-89
2022/08/14 13:13:58;;;;;;;;;;;27.10;43.10;;;;;;4915681;29;19935;-87
2022/08/14 13:16:27;;;;;;;;;;;27.20;42.60;;;;;;4923702;29;19927;-90
2022/08/14 13:19:06;;;;;;;;;;;27.40;42.70;;;;;;4922552;29;19966;-85
2022/08/14 13:21:38;;;;;;;;;;;27.50;42.20;;;;;;4920511;29;20622;-86
2022/08/14 13:24:25;;;;;;;;;;;27.60;41.20;;;;;;4926072;29;19934;-86
2022/08/14 13:26:59;;;;;;;;;;;27.60;41.20;;;;;;4934578;29;20419;-85
2022/08/14 13:29:27;;;;;;;;;;;27.70;39.90;;;;;;4919008;29;20302;-86
2022/08/14 13:31:57;;;;;;;;;;;27.60;39.90;;;;;;4923097;29;19950;-90
2022/08/14 13:34:25;;;;;;;;;;;27.60;39.70;;;;;;4947708;29;19981;-85
2022/08/14 13:36:52;;;;;;;;;;;27.50;39.20;;;;;;4926478;29;19978;-85
2022/08/14 13:39:31;;;;;;;;;;;27.60;39.70;;;;;;4921040;29;19982;-86
2022/08/14 13:42:10;;;;;;;;;;;27.60;40.50;;;;;;4920557;29;19939;-86
2022/08/14 13:44:43;;;;;;;;;;;27.70;40.40;;;;;;4932861;29;20068;-84
2022/08/14 13:47:13;;;;;;;;;;;27.70;41.50;;;;;;4922983;29;19926;-86
2022/08/14 13:49:41;;;;;;;;;;;27.80;41.60;;;;;;4914175;29;19994;-91
2022/08/14 13:52:24;;;;;;;;;;;27.90;42.40;;;;;;4926339;29;20026;-84
2022/08/14 13:55:12;;;;;;;;;;;28.00;40.90;;;;;;4931232;29;19966;-85
2022/08/14 13:57:40;;;;;;;;;;;28.10;41.10;;;;;;4920142;29;19931;-85
2022/08/14 14:00:18;;;;;;;;;;;28.20;41.00;;;;;;4918876;29;19927;-84
2022/08/14 14:02:58;;;;;;;;;;;28.20;40.50;;;;;;4921478;29;20006;-92
2022/08/14 14:05:27;;;;;;;;;;;28.30;40.60;;;;;;4925522;29;20339;-84
2022/08/14 14:08:14;;;;;;;;;;;28.40;40.70;;;;;;4917923;29;20010;-89
2022/08/14 14:11:01;;;;;;;;;;;28.40;38.60;;;;;;4922227;29;20361;-91
2022/08/14 14:13:29;;;;;;;;;;;28.50;38.80;;;;;;4902520;29;19982;-85
2022/08/14 14:15:59;;;;;;;;;;;28.60;38.60;;;;;;4914431;29;19977;-85
2022/08/14 14:18:26;;;;;;;;;;;28.70;38.10;;;;;;4932202;29;19931;-91
2022/08/14 14:21:02;;;;;;;;;;;28.80;38.90;;;;;;4917658;29;19931;-90
2022/08/14 14:23:30;;;;;;;;;;;28.90;39.10;;;;;;4916682;29;20002;-85
2022/08/14 14:25:58;;;;;;;;;;;28.90;37.70;;;;;;4910054;29;19933;-91
2022/08/14 14:28:29;;;;;;;;;;;28.90;37.20;;;;;;4915781;29;19927;-90
2022/08/14 14:30:57;;;;;;;;;;;28.80;37.50;;;;;;4918089;29;19955;-90
2022/08/14 14:33:32;;;;;;;;;;;28.80;37.60;;;;;;4920303;29;20017;-90
2022/08/14 14:36:20;;;;;;;;;;;28.80;37.20;;;;;;4915070;29;19930;-84
2022/08/14 14:38:55;;;;;;;;;;;28.80;37.20;;;;;;4920186;29;19926;-85
2022/08/14 14:41:23;;;;;;;;;;;28.70;37.60;;;;;;4910145;29;19995;-85
2022/08/14 14:44:17;;;;;;;;;;;28.80;38.10;;;;;;4907663;29;20013;-90
2022/08/14 14:47:01;;;;;;;;;;;28.80;38.20;;;;;;4786215;29;19936;-85
2022/08/14 14:49:33;;;;;;;;;;;28.90;37.80;;;;;;4881717;29;20355;-85
2022/08/14 14:52:22;;;;;;;;;;;29.10;35.60;;;;;;4877149;29;20422;-87
2022/08/14 14:54:57;;;;;;;;;;;29.10;34.20;;;;;;4863651;29;19935;-85
2022/08/14 14:57:25;;;;;;;;;;;29.10;34.30;;;;;;4877080;29;20395;-85
2022/08/14 15:00:05;;;;;;;;;;;29.00;33.80;;;;;;4862724;29;19947;-90
2022/08/14 15:02:40;;;;;;;;;;;29.00;34.20;;;;;;4854974;29;19927;-85
2022/08/14 15:05:08;;;;;;;;;;;29.10;34.60;;;;;;4878319;29;19928;-85
2022/08/14 15:07:35;;;;;;;;;;;29.00;34.80;;;;;;4861266;29;20445;-85
2022/08/14 15:10:06;;;;;;;;;;;28.90;35.00;;;;;;4877789;29;19958;-89